createdAt,value
2019-02-21T00:00:42.293Z,24.43
2019-02-21T00:03:11.191Z,29.43
2019-02-21T00:05:39.820Z,25.70
2019-02-21T00:08:08.482Z,28.83
2019-02-21T00:10:37.164Z,22.97
2019-02-21T00:13:06.395Z,28.63
2019-02-21T00:15:35.289Z,24.47
2019-02-21T00:18:04.203Z,20.73
2019-02-21T00:20:32.840Z,29.03
2019-02-21T00:23:01.774Z,26.73
2019-02-21T00:25:30.889Z,25.70
2019-02-21T00:27:59.774Z,25.43
2019-02-21T00:30:35.194Z,21.03
2019-02-21T00:32:59.265Z,28.20
2019-02-21T00:35:28.226Z,24.63
2019-02-21T00:37:57.111Z,26.50
2019-02-21T00:40:26.071Z,25.00
2019-02-21T00:42:55.259Z,26.03
2019-02-21T00:45:24.657Z,23.50
2019-02-21T00:47:53.596Z,24.30
2019-02-21T00:50:22.235Z,27.67
2019-02-21T00:52:51.364Z,25.23
2019-02-21T00:55:20.250Z,26.13
2019-02-21T00:57:49.147Z,27.33
2019-02-21T01:00:17.970Z,26.07
2019-02-21T01:02:46.609Z,28.17
2019-02-21T01:05:15.524Z,28.97
2019-02-21T01:07:46.983Z,28.97
2019-02-21T01:10:15.007Z,26.13
2019-02-21T01:12:44.172Z,32.00
2019-02-21T01:15:12.894Z,26.43
2019-02-21T01:17:41.803Z,26.53
2019-02-21T01:20:10.768Z,28.17
2019-02-21T01:22:39.479Z,28.40
2019-02-21T01:25:08.471Z,24.90
2019-02-21T01:27:37.119Z,25.80
2019-02-21T01:30:06.064Z,22.07
2019-02-21T01:32:35.023Z,26.20
2019-02-21T01:35:03.727Z,29.63
2019-02-21T01:37:32.417Z,28.33
2019-02-21T01:40:01.388Z,26.70
2019-02-21T01:42:30.267Z,26.17
2019-02-21T01:44:58.960Z,26.10
2019-02-21T01:47:27.853Z,24.40
2019-02-21T01:49:56.508Z,27.10
2019-02-21T01:52:25.368Z,28.27
2019-02-21T01:54:54.041Z,29.13
2019-02-21T01:57:23.137Z,29.60
2019-02-21T01:59:52.015Z,27.20
2019-02-21T02:02:20.643Z,23.37
2019-02-21T02:04:49.531Z,25.77
2019-02-21T02:07:18.395Z,24.10
2019-02-21T02:09:47.442Z,24.37
2019-02-21T02:12:16.090Z,25.47
2019-02-21T02:14:45.249Z,26.87
2019-02-21T02:17:14.389Z,26.77
2019-02-21T02:19:43.276Z,25.40
2019-02-21T02:22:12.467Z,22.30
2019-02-21T02:24:41.350Z,24.63
2019-02-21T02:27:10.113Z,21.30
2019-02-21T02:29:38.988Z,25.60
2019-02-21T02:32:09.678Z,29.20
2019-02-21T02:34:38.249Z,29.83
2019-02-21T02:37:06.861Z,26.40
2019-02-21T02:39:35.566Z,28.17
2019-02-21T02:42:04.278Z,26.03
2019-02-21T02:44:33.167Z,31.43
2019-02-21T02:47:01.835Z,30.77
2019-02-21T02:49:31.093Z,26.37
2019-02-21T02:51:59.754Z,32.90
2019-02-21T02:54:28.909Z,28.80
2019-02-21T02:56:58.100Z,25.50
2019-02-21T02:59:26.979Z,29.30
2019-02-21T03:01:55.882Z,27.40
2019-02-21T03:04:24.613Z,27.67
2019-02-21T03:06:53.481Z,30.23
2019-02-21T03:09:22.357Z,28.33
2019-02-21T03:11:52.057Z,30.13
2019-02-21T03:14:21.110Z,29.57
2019-02-21T03:16:50.011Z,32.60
2019-02-21T03:19:21.974Z,26.90
2019-02-21T03:21:51.104Z,33.70
2019-02-21T03:24:19.951Z,35.57
2019-02-21T03:26:48.820Z,28.83
2019-02-21T03:29:17.711Z,32.83
2019-02-21T03:31:54.385Z,32.13
2019-02-21T03:34:17.569Z,32.50
2019-02-21T03:36:46.473Z,31.50
2019-02-21T03:39:17.844Z,35.33
2019-02-21T03:41:47.213Z,41.20
2019-02-21T03:44:15.846Z,32.30
2019-02-21T03:46:44.458Z,34.43
2019-02-21T03:49:13.869Z,38.03
2019-02-21T03:51:42.774Z,37.73
2019-02-21T03:54:11.461Z,35.63
2019-02-21T03:56:43.204Z,33.43
2019-02-21T03:59:13.642Z,44.60
2019-02-21T04:01:42.224Z,42.20
2019-02-21T04:04:13.974Z,38.80
2019-02-21T04:06:43.142Z,42.30
2019-02-21T04:09:12.189Z,44.67
2019-02-21T04:11:43.884Z,47.63
2019-02-21T04:14:12.856Z,50.30
2019-02-21T04:16:41.836Z,46.77
2019-02-21T04:19:10.450Z,45.23
2019-02-21T04:21:39.649Z,43.60
2019-02-21T04:24:08.731Z,36.07
2019-02-21T04:26:37.615Z,47.43
2019-02-21T04:29:06.584Z,45.23
2019-02-21T04:31:35.772Z,49.97
2019-02-21T04:34:04.649Z,49.63
2019-02-21T04:36:33.546Z,48.67
2019-02-21T04:39:02.194Z,44.97
2019-02-21T04:41:31.055Z,50.07
2019-02-21T04:43:59.983Z,49.87
2019-02-21T04:46:28.882Z,48.83
2019-02-21T04:48:57.766Z,48.70
2019-02-21T04:51:26.750Z,52.60
2019-02-21T04:53:55.670Z,59.53
2019-02-21T04:56:24.549Z,56.40
2019-02-21T04:58:53.720Z,55.23
2019-02-21T05:01:22.897Z,55.67
2019-02-21T05:03:51.601Z,58.10
2019-02-21T05:06:20.288Z,56.03
2019-02-21T05:08:49.240Z,59.90
2019-02-21T05:11:18.599Z,60.70
2019-02-21T05:13:47.549Z,67.83
2019-02-21T05:16:16.182Z,63.77
2019-02-21T05:18:45.126Z,58.33
2019-02-21T05:21:16.826Z,58.63
2019-02-21T05:23:46.902Z,64.20
2019-02-21T05:26:20.097Z,61.13
2019-02-21T05:28:49.190Z,65.83
2019-02-21T05:31:27.520Z,65.07
2019-02-21T05:34:07.682Z,67.73
2019-02-21T05:36:58.393Z,69.27
2019-02-21T05:39:54.333Z,59.93
2019-02-21T05:42:35.964Z,71.13
2019-02-21T05:45:29.582Z,69.27
2019-02-21T05:48:12.223Z,70.87
2019-02-21T05:50:49.410Z,69.60
2019-02-21T05:53:24.948Z,74.67
2019-02-21T05:56:01.629Z,76.63
2019-02-21T05:58:49.750Z,77.67
2019-02-21T06:01:43.743Z,84.90
2019-02-21T06:04:38.185Z,80.43
2019-02-21T06:07:16.721Z,99.30
2019-02-21T06:10:16.395Z,74.60
2019-02-21T06:12:51.479Z,83.07
2019-02-21T06:15:51.578Z,80.40
2019-02-21T06:18:43.601Z,79.83
2019-02-21T06:21:37.380Z,81.30
2019-02-21T06:24:24.070Z,76.63
2019-02-21T06:27:12.172Z,71.67
2019-02-21T06:29:45.259Z,76.93
2019-02-21T06:32:14.735Z,81.47
2019-02-21T06:34:43.596Z,79.10
2019-02-21T06:37:12.883Z,67.73
2019-02-21T06:39:42.353Z,81.80
2019-02-21T06:42:11.477Z,76.30
2019-02-21T06:44:40.362Z,84.03
2019-02-21T06:47:09.523Z,72.43
2019-02-21T06:49:38.676Z,83.20
2019-02-21T06:52:07.640Z,87.80
2019-02-21T06:54:36.607Z,84.80
2019-02-21T06:57:05.566Z,82.97
2019-02-21T06:59:42.182Z,87.57
2019-02-21T07:02:05.260Z,89.80
2019-02-21T07:04:34.207Z,85.00
2019-02-21T07:07:03.527Z,89.67
2019-02-21T07:09:32.729Z,84.87
2019-02-21T07:12:01.728Z,87.77
2019-02-21T07:14:30.423Z,88.90
2019-02-21T07:17:00.466Z,86.87
2019-02-21T07:19:29.392Z,82.37
2019-02-21T07:21:58.346Z,87.40
2019-02-21T07:24:27.228Z,87.27
2019-02-21T07:26:55.887Z,82.47
2019-02-21T07:29:24.558Z,80.00
2019-02-21T07:31:54.031Z,75.07
2019-02-21T07:34:22.849Z,77.13
2019-02-21T07:36:51.858Z,79.30
2019-02-21T07:39:21.411Z,77.43
2019-02-21T07:41:50.909Z,81.50
2019-02-21T07:44:20.044Z,78.57
2019-02-21T07:46:48.662Z,72.47
2019-02-21T07:49:17.297Z,76.80
2019-02-21T07:51:46.698Z,77.10
2019-02-21T07:54:18.510Z,73.53
2019-02-21T07:56:47.501Z,73.20
2019-02-21T07:59:16.241Z,60.47
2019-02-21T08:01:45.384Z,63.80
2019-02-21T08:04:14.860Z,65.00
2019-02-21T08:06:43.801Z,65.30
2019-02-21T08:09:12.831Z,63.97
2019-02-21T08:11:42.204Z,61.23
2019-02-21T08:14:10.863Z,62.97
2019-02-21T08:16:39.766Z,62.40
2019-02-21T08:19:08.669Z,56.37
2019-02-21T08:21:37.521Z,57.97
2019-02-21T08:24:06.316Z,59.40
2019-02-21T08:26:35.258Z,56.40
2019-02-21T08:29:06.170Z,59.00
2019-02-21T08:31:34.618Z,54.33
2019-02-21T08:34:07.437Z,49.43
2019-02-21T08:36:36.584Z,48.17
2019-02-21T08:39:07.161Z,49.83
2019-02-21T08:41:39.019Z,44.67
2019-02-21T08:44:07.666Z,48.90
2019-02-21T08:46:36.657Z,43.70
2019-02-21T08:49:07.642Z,42.93
2019-02-21T08:51:36.604Z,40.27
2019-02-21T08:54:05.777Z,39.63
2019-02-21T08:56:34.984Z,43.80
2019-02-21T08:59:03.940Z,36.13
2019-02-21T09:01:32.640Z,38.20
2019-02-21T09:04:10.468Z,36.90
2019-02-21T09:06:34.661Z,42.37
2019-02-21T09:09:04.264Z,34.17
2019-02-21T09:11:32.970Z,32.80
2019-02-21T09:14:01.882Z,35.30
2019-02-21T09:16:31.012Z,21.67
2019-02-21T09:19:00.223Z,36.70
2019-02-21T09:21:29.155Z,29.97
2019-02-21T09:23:58.143Z,39.63
2019-02-21T09:26:27.020Z,33.63
2019-02-21T09:28:58.514Z,35.43
2019-02-21T09:31:26.446Z,31.13
2019-02-21T09:33:55.176Z,30.23
2019-02-21T09:36:24.039Z,28.20
2019-02-21T09:38:53.086Z,28.40
2019-02-21T09:41:22.280Z,31.33
2019-02-21T09:43:51.458Z,29.77
2019-02-21T09:46:20.579Z,33.20
2019-02-21T09:48:49.489Z,30.10
2019-02-21T09:51:18.466Z,34.73
2019-02-21T09:53:47.325Z,34.63
2019-02-21T09:56:16.215Z,35.70
2019-02-21T09:58:45.999Z,29.73
2019-02-21T10:01:14.765Z,30.13
2019-02-21T10:03:44.371Z,36.30
2019-02-21T10:06:13.146Z,39.53
2019-02-21T10:08:41.776Z,37.20
2019-02-21T10:11:11.539Z,34.83
2019-02-21T10:13:40.275Z,38.30
2019-02-21T10:16:09.155Z,38.07
2019-02-21T10:18:38.717Z,35.80
2019-02-21T10:21:07.343Z,37.27
2019-02-21T10:23:35.960Z,32.77
2019-02-21T10:26:04.671Z,34.13
2019-02-21T10:28:33.289Z,37.30
2019-02-21T10:31:02.373Z,36.97
2019-02-21T10:33:31.513Z,35.13
2019-02-21T10:36:00.595Z,33.87
2019-02-21T10:38:29.353Z,34.77
2019-02-21T10:40:58.276Z,38.07
2019-02-21T10:43:26.859Z,37.40
2019-02-21T10:45:55.736Z,38.03
2019-02-21T10:48:24.690Z,35.80
2019-02-21T10:50:53.389Z,35.90
2019-02-21T10:53:22.034Z,38.63
2019-02-21T10:55:50.828Z,39.13
2019-02-21T10:58:19.715Z,41.87
2019-02-21T11:00:48.418Z,36.60
2019-02-21T11:03:17.543Z,34.43
2019-02-21T11:05:46.544Z,39.17
2019-02-21T11:08:15.501Z,38.07
2019-02-21T11:10:44.491Z,39.00
2019-02-21T11:13:13.378Z,39.10
2019-02-21T11:15:42.485Z,32.83
2019-02-21T11:18:11.093Z,41.97
2019-02-21T11:20:40.017Z,39.80
2019-02-21T11:23:08.862Z,39.00
2019-02-21T11:25:37.560Z,40.20
2019-02-21T11:28:06.743Z,40.87
2019-02-21T11:30:35.462Z,36.87
2019-02-21T11:33:04.724Z,37.83
2019-02-21T11:35:33.604Z,39.07
2019-02-21T11:38:02.316Z,38.67
2019-02-21T11:40:31.577Z,41.00
2019-02-21T11:43:02.691Z,37.10
2019-02-21T11:45:31.976Z,42.40
2019-02-21T11:48:01.078Z,38.87
2019-02-21T11:50:30.353Z,39.40
2019-02-21T11:52:59.556Z,34.40
2019-02-21T11:55:28.586Z,33.97
2019-02-21T11:57:57.498Z,40.07
2019-02-21T12:00:26.659Z,43.97
2019-02-21T12:02:55.513Z,43.33
2019-02-21T12:05:32.189Z,44.53
2019-02-21T12:07:54.919Z,48.87
2019-02-21T12:10:23.743Z,41.30
2019-02-21T12:12:53.196Z,40.60
2019-02-21T12:15:22.125Z,46.53
2019-02-21T12:17:50.868Z,42.43
2019-02-21T12:20:19.843Z,40.33
2019-02-21T12:22:48.546Z,44.87
2019-02-21T12:25:17.494Z,37.43
2019-02-21T12:27:46.160Z,43.13
2019-02-21T12:30:16.600Z,46.57
2019-02-21T12:32:45.507Z,46.37
2019-02-21T12:35:15.114Z,52.83
2019-02-21T12:37:43.897Z,46.67
2019-02-21T12:40:14.842Z,46.67
2019-02-21T12:42:43.795Z,50.83
2019-02-21T12:45:13.981Z,50.20
2019-02-21T12:47:50.841Z,51.70
2019-02-21T12:50:13.655Z,49.27
2019-02-21T12:52:42.632Z,43.67
2019-02-21T12:55:11.537Z,58.83
2019-02-21T12:57:40.723Z,57.40
2019-02-21T13:00:12.172Z,58.27
2019-02-21T13:02:41.041Z,56.07
2019-02-21T13:05:09.934Z,57.90
2019-02-21T13:07:38.928Z,50.33
2019-02-21T13:10:10.022Z,54.63
2019-02-21T13:12:39.414Z,53.43
2019-02-21T13:15:09.247Z,46.23
2019-02-21T13:17:37.858Z,55.83
2019-02-21T13:20:07.376Z,57.67
2019-02-21T13:22:36.330Z,54.50
2019-02-21T13:25:05.897Z,61.20
2019-02-21T13:27:35.262Z,67.93
2019-02-21T13:30:04.561Z,57.50
2019-02-21T13:32:33.704Z,58.27
2019-02-21T13:35:03.105Z,61.77
2019-02-21T13:37:31.957Z,63.03
2019-02-21T13:40:00.976Z,48.20
2019-02-21T13:42:29.922Z,63.43
2019-02-21T13:44:58.523Z,62.90
2019-02-21T13:47:27.396Z,59.37
2019-02-21T13:49:56.041Z,68.83
2019-02-21T13:52:24.756Z,70.20
2019-02-21T13:54:53.578Z,70.00
2019-02-21T13:57:22.725Z,63.13
2019-02-21T13:59:51.774Z,74.27
2019-02-21T14:02:20.481Z,70.87
2019-02-21T14:04:49.862Z,87.73
2019-02-21T14:07:18.761Z,68.57
2019-02-21T14:09:47.646Z,90.30
2019-02-21T14:12:16.629Z,86.90
2019-02-21T14:14:45.747Z,86.27
2019-02-21T14:17:15.208Z,87.50
2019-02-21T14:19:44.345Z,80.50
2019-02-21T14:22:13.490Z,89.30
2019-02-21T14:24:42.379Z,93.03
2019-02-21T14:27:11.319Z,72.10
2019-02-21T14:29:40.036Z,83.47
2019-02-21T14:32:08.998Z,93.67
2019-02-21T14:34:37.723Z,88.70
2019-02-21T14:37:06.566Z,97.30
2019-02-21T14:39:35.524Z,92.07
2019-02-21T14:42:04.660Z,84.33
2019-02-21T14:44:34.039Z,93.87
2019-02-21T14:47:02.971Z,81.53
2019-02-21T14:49:32.088Z,74.10
2019-02-21T14:52:01.987Z,77.53
2019-02-21T14:54:31.024Z,68.27
2019-02-21T14:56:59.888Z,70.37
2019-02-21T14:59:28.755Z,74.33
2019-02-21T15:01:57.620Z,66.63
2019-02-21T15:04:26.776Z,63.93
2019-02-21T15:06:55.916Z,60.10
2019-02-21T15:09:24.860Z,66.43
2019-02-21T15:11:53.771Z,70.30
2019-02-21T15:14:23.225Z,74.47
2019-02-21T15:16:51.893Z,73.73
2019-02-21T15:19:20.521Z,74.13
2019-02-21T15:21:49.161Z,78.43
2019-02-21T15:24:17.831Z,74.63
2019-02-21T15:26:46.963Z,70.03
2019-02-21T15:29:15.810Z,71.90
2019-02-21T15:31:44.688Z,63.33
2019-02-21T15:34:13.600Z,68.60
2019-02-21T15:36:42.780Z,76.30
2019-02-21T15:39:11.526Z,65.97
2019-02-21T15:41:40.495Z,69.37
2019-02-21T15:44:09.608Z,72.50
2019-02-21T15:46:38.502Z,70.80
2019-02-21T15:49:07.201Z,72.53
2019-02-21T15:51:40.734Z,78.83
2019-02-21T15:54:12.337Z,77.87
2019-02-21T15:56:40.788Z,73.23
2019-02-21T15:59:09.522Z,59.03
2019-02-21T16:01:47.010Z,65.20
2019-02-21T16:04:08.815Z,77.90
2019-02-21T16:06:39.308Z,64.37
2019-02-21T16:09:16.300Z,59.10
2019-02-21T16:11:40.002Z,63.53
2019-02-21T16:14:09.794Z,63.73
2019-02-21T16:16:38.427Z,65.90
2019-02-21T16:19:07.236Z,58.80
2019-02-21T16:21:36.385Z,58.90
2019-02-21T16:24:05.635Z,63.70
2019-02-21T16:26:36.195Z,60.40
2019-02-21T16:29:04.849Z,64.43
2019-02-21T16:31:33.789Z,55.73
2019-02-21T16:34:02.708Z,56.37
2019-02-21T16:36:31.621Z,62.17
2019-02-21T16:39:01.318Z,53.40
2019-02-21T16:41:36.379Z,52.47
2019-02-21T16:44:01.216Z,60.33
2019-02-21T16:46:29.840Z,58.63
2019-02-21T16:48:58.746Z,47.77
2019-02-21T16:51:27.449Z,53.03
2019-02-21T16:53:56.574Z,51.57
2019-02-21T16:56:26.646Z,50.07
2019-02-21T16:58:55.432Z,51.77
2019-02-21T17:01:24.328Z,61.87
2019-02-21T17:03:52.964Z,54.53
2019-02-21T17:06:21.896Z,45.13
2019-02-21T17:08:50.539Z,51.83
2019-02-21T17:11:19.533Z,48.77
2019-02-21T17:13:52.797Z,48.83
2019-02-21T17:16:21.072Z,54.30
2019-02-21T17:18:50.043Z,54.43
2019-02-21T17:21:20.996Z,51.77
2019-02-21T17:23:49.622Z,54.17
2019-02-21T17:26:18.262Z,48.43
2019-02-21T17:28:49.920Z,49.43
2019-02-21T17:31:18.649Z,50.30
2019-02-21T17:33:47.525Z,52.50
2019-02-21T17:36:16.269Z,53.10
2019-02-21T17:38:45.334Z,51.80
2019-02-21T17:41:14.270Z,50.00
2019-02-21T17:43:43.443Z,47.10
2019-02-21T17:46:12.376Z,45.10
2019-02-21T17:48:41.363Z,40.63
2019-02-21T17:51:10.310Z,40.17
2019-02-21T17:53:39.284Z,41.40
2019-02-21T17:56:08.280Z,42.43
2019-02-21T17:58:37.307Z,39.13
2019-02-21T18:01:08.812Z,34.83
2019-02-21T18:03:37.657Z,30.83
2019-02-21T18:06:06.415Z,33.17
2019-02-21T18:08:35.342Z,30.73
2019-02-21T18:11:04.092Z,31.67
2019-02-21T18:13:32.857Z,28.30
2019-02-21T18:16:01.512Z,31.03
2019-02-21T18:18:30.439Z,29.77
2019-02-21T18:20:59.189Z,35.37
2019-02-21T18:23:27.863Z,24.00
2019-02-21T18:26:04.448Z,22.10
2019-02-21T18:28:33.523Z,30.23
2019-02-21T18:31:02.287Z,30.83
2019-02-21T18:33:31.203Z,28.50
2019-02-21T18:35:59.877Z,29.37
2019-02-21T18:38:28.754Z,30.10
2019-02-21T18:40:57.493Z,28.63
2019-02-21T18:43:26.980Z,27.60
2019-02-21T18:45:57.543Z,29.80
2019-02-21T18:48:26.517Z,31.33
2019-02-21T18:50:55.280Z,35.07
2019-02-21T18:53:23.964Z,31.43
2019-02-21T18:55:52.879Z,33.00
2019-02-21T18:58:22.593Z,25.77
2019-02-21T19:00:51.509Z,40.60
2019-02-21T19:03:24.831Z,34.20
2019-02-21T19:05:54.026Z,31.13
2019-02-21T19:08:22.691Z,32.53
2019-02-21T19:10:52.069Z,32.07
2019-02-21T19:13:20.716Z,31.43
2019-02-21T19:15:49.926Z,34.60
2019-02-21T19:18:18.856Z,30.43
2019-02-21T19:20:49.870Z,32.73
2019-02-21T19:23:18.897Z,32.23
2019-02-21T19:25:49.166Z,34.37
2019-02-21T19:28:18.845Z,32.93
2019-02-21T19:30:54.436Z,37.17
2019-02-21T19:33:23.420Z,32.87
2019-02-21T19:35:52.908Z,37.10
2019-02-21T19:38:22.627Z,35.83
2019-02-21T19:40:51.521Z,36.80
2019-02-21T19:43:20.492Z,37.90
2019-02-21T19:45:50.533Z,38.30
2019-02-21T19:48:19.267Z,39.43
2019-02-21T19:50:47.986Z,38.73
2019-02-21T19:53:17.014Z,32.23
2019-02-21T19:55:46.266Z,39.57
2019-02-21T19:58:15.788Z,38.73
2019-02-21T20:00:44.832Z,44.47
2019-02-21T20:03:13.906Z,40.90
2019-02-21T20:05:42.930Z,41.97
2019-02-21T20:08:20.986Z,44.50
2019-02-21T20:10:43.249Z,46.23
2019-02-21T20:13:13.411Z,44.60
2019-02-21T20:15:42.182Z,56.27
2019-02-21T20:18:10.887Z,51.20
2019-02-21T20:20:40.195Z,55.93
2019-02-21T20:23:11.032Z,57.40
2019-02-21T20:25:39.978Z,60.07
2019-02-21T20:28:08.958Z,57.27
2019-02-21T20:30:37.969Z,71.07
2019-02-21T20:33:06.651Z,52.37
2019-02-21T20:35:35.591Z,53.87
2019-02-21T20:38:04.735Z,53.47
2019-02-21T20:40:33.620Z,44.60
2019-02-21T20:43:02.437Z,42.90
2019-02-21T20:45:31.673Z,42.83
2019-02-21T20:48:01.115Z,38.73
2019-02-21T20:50:29.743Z,42.07
2019-02-21T20:52:58.699Z,52.97
2019-02-21T20:55:27.345Z,45.17
2019-02-21T20:57:56.502Z,48.83
2019-02-21T21:00:25.792Z,40.47
2019-02-21T21:02:54.446Z,49.33
2019-02-21T21:05:23.447Z,51.53
2019-02-21T21:07:52.648Z,59.50
2019-02-21T21:10:21.626Z,60.20
2019-02-21T21:12:50.785Z,62.43
2019-02-21T21:15:19.525Z,66.17
2019-02-21T21:17:48.459Z,60.27
2019-02-21T21:20:17.665Z,70.40
2019-02-21T21:22:46.562Z,61.47
2019-02-21T21:25:15.422Z,73.57
2019-02-21T21:27:44.856Z,69.70
2019-02-21T21:30:14.540Z,66.37
2019-02-21T21:32:43.237Z,68.50
2019-02-21T21:35:12.180Z,68.57
2019-02-21T21:37:41.183Z,66.97
2019-02-21T21:40:11.801Z,56.23
2019-02-21T21:42:41.378Z,51.70
2019-02-21T21:45:12.582Z,55.07
2019-02-21T21:47:41.697Z,48.43
2019-02-21T21:50:11.357Z,50.00
2019-02-21T21:52:40.278Z,48.13
2019-02-21T21:55:08.976Z,47.13
2019-02-21T21:57:37.918Z,52.40
2019-02-21T22:00:09.127Z,54.30
2019-02-21T22:02:37.765Z,64.27
2019-02-21T22:05:07.039Z,78.77
2019-02-21T22:07:35.687Z,74.17
2019-02-21T22:10:05.161Z,91.40
2019-02-21T22:12:34.315Z,84.00
2019-02-21T22:15:03.254Z,85.80
2019-02-21T22:17:31.885Z,104.10
2019-02-21T22:20:00.502Z,86.13
2019-02-21T22:22:29.442Z,95.03
2019-02-21T22:24:58.313Z,96.17
2019-02-21T22:27:27.228Z,98.20
2019-02-21T22:29:56.397Z,106.83
2019-02-21T22:32:25.279Z,108.73
2019-02-21T22:34:53.930Z,100.77
2019-02-21T22:37:22.579Z,101.37
2019-02-21T22:39:52.186Z,107.90
2019-02-21T22:42:20.815Z,120.23
2019-02-21T22:44:49.734Z,119.93
2019-02-21T22:47:18.390Z,123.33
2019-02-21T22:49:47.550Z,129.47
2019-02-21T22:52:17.098Z,130.97
2019-02-21T22:54:46.516Z,122.67
2019-02-21T22:57:15.654Z,123.80
2019-02-21T22:59:44.814Z,120.23
2019-02-21T23:02:13.967Z,150.40
2019-02-21T23:04:48.374Z,129.27
2019-02-21T23:07:53.430Z,139.93
2019-02-21T23:10:22.404Z,139.77
2019-02-21T23:12:51.286Z,142.53
2019-02-21T23:15:20.509Z,147.47
2019-02-21T23:17:49.714Z,145.77
2019-02-21T23:20:18.667Z,139.17
2019-02-21T23:22:48.062Z,156.17
2019-02-21T23:25:16.974Z,161.43
2019-02-21T23:27:45.868Z,167.30
2019-02-21T23:30:14.919Z,152.23
2019-02-21T23:32:44.044Z,149.60
2019-02-21T23:35:18.103Z,148.77
2019-02-21T23:37:47.073Z,125.87
2019-02-21T23:40:16.262Z,100.17
2019-02-21T23:42:44.923Z,94.23
2019-02-21T23:45:13.890Z,88.57
2019-02-21T23:47:49.819Z,87.67
2019-02-21T23:50:12.988Z,87.20
2019-02-21T23:52:42.246Z,67.30
2019-02-21T23:55:10.919Z,59.00
2019-02-21T23:57:39.893Z,57.40
